Terminal Aerodrome Forecast
Issued by NWS

Home | Current Version | Previous Version | Text Only | Print | Product List | Glossary On
Versions: 1 2 3 4 5 6 7 8 9 10 11 12 13 14 15 16 17 18 19 20 21 22 23 24 25 26 27 28
000
FTUS43 KDDC 291120
TAFHYS
TAF
KHYS 291120Z 2912/3012 04018G26KT P6SM -RA OVC007
     FM291500 03019G29KT 3SM RA OVC008
     FM301000 36022G31KT 3SM RA OVC008=

USA.gov is the U.S. government's official web portal to all federal, state and local government web resources and services.